Time;durP1;ratioP1;P1;durP2;ratioP2;P2;SDS_P1;SDS_P2;PMS_P1;PMS_P2;Temp;Humidity;BMP_temperature;BMP_pressure;BME280_temperature;BME280_humidity;BME280_pressure;Samples;Min_cycle;Max_cycle;Signal;HPM_P1;HPM_P2
2023/07/20 00:01:24;;;;;;;7.97;5.40;;;;;;;18.12;76.20;101158.19;3532039;40;20423;-63
2023/07/20 00:03:54;;;;;;;9.25;4.72;;;;;;;18.06;77.06;101153.28;3532526;40;20081;-63
2023/07/20 00:06:25;;;;;;;8.02;4.70;;;;;;;18.02;77.42;101157.28;3521942;40;20333;-64
2023/07/20 00:08:55;;;;;;;7.78;5.50;;;;;;;17.88;77.26;101146.75;3528741;40;20061;-64
2023/07/20 00:11:25;;;;;;;9.50;4.60;;;;;;;17.90;77.90;101151.06;3531009;40;20054;-64
2023/07/20 00:13:51;;;;;;;7.00;5.03;;;;;;;17.85;77.13;101147.88;3528576;40;20066;-64
2023/07/20 00:16:16;;;;;;;8.30;5.32;;;;;;;17.82;76.98;101150.84;3528943;40;20058;-64
2023/07/20 00:18:42;;;;;;;8.63;5.10;;;;;;;17.75;78.51;101142.34;3529139;40;20429;-64
2023/07/20 00:21:07;;;;;;;10.40;4.78;;;;;;;17.76;78.54;101154.06;3531327;40;20498;-63
2023/07/20 00:23:33;;;;;;;8.55;5.05;;;;;;;17.79;78.23;101153.84;3522170;40;20378;-64
2023/07/20 00:25:59;;;;;;;9.60;5.38;;;;;;;17.78;78.00;101155.69;3529085;40;20062;-64
2023/07/20 00:28:24;;;;;;;8.63;5.50;;;;;;;17.80;78.71;101159.16;3529220;40;20058;-64
2023/07/20 00:30:50;;;;;;;7.78;5.30;;;;;;;17.83;78.49;101160.75;3531564;40;20057;-64
2023/07/20 00:33:18;;;;;;;7.53;4.63;;;;;;;17.84;77.84;101163.34;3532333;40;20061;-64
2023/07/20 00:35:44;;;;;;;8.50;5.22;;;;;;;17.85;78.02;101156.88;3533316;40;20136;-62
2023/07/20 00:38:10;;;;;;;9.40;5.25;;;;;;;17.85;77.98;101165.03;3531348;40;20054;-62
2023/07/20 00:40:40;;;;;;;9.80;5.68;;;;;;;17.85;77.34;101158.75;3534285;40;20046;-62
2023/07/20 00:43:06;;;;;;;7.72;5.00;;;;;;;17.84;77.61;101159.75;3530751;40;20355;-62
2023/07/20 00:45:34;;;;;;;8.40;5.53;;;;;;;17.83;77.15;101158.91;3528765;40;20069;-63
2023/07/20 00:48:04;;;;;;;6.55;4.82;;;;;;;17.73;77.59;101144.34;3534573;40;20316;-65
2023/07/20 00:50:32;;;;;;;7.18;5.00;;;;;;;17.75;77.67;101158.66;3520399;40;20125;-62
2023/07/20 00:52:58;;;;;;;9.82;5.50;;;;;;;17.71;78.16;101168.09;3524237;40;20050;-62
2023/07/20 00:55:26;;;;;;;8.55;5.13;;;;;;;17.67;77.50;101157.63;3529215;40;20113;-63
2023/07/20 00:57:53;;;;;;;8.80;5.57;;;;;;;17.63;78.13;101166.03;3522944;40;20067;-63
2023/07/20 01:00:19;;;;;;;8.23;5.43;;;;;;;17.56;77.86;101150.38;3533842;40;20209;-62
2023/07/20 01:02:46;;;;;;;9.75;5.63;;;;;;;17.51;77.88;101149.94;3531016;40;20405;-63
2023/07/20 01:05:16;;;;;;;8.25;5.18;;;;;;;17.46;78.96;101154.88;3533635;40;20125;-63
2023/07/20 01:08:28;;;;;;;10.63;5.43;;;;;;;17.39;78.31;101158.13;3536210;40;20055;-63
2023/07/20 01:11:09;;;;;;;9.15;5.82;;;;;;;17.37;78.75;101160.09;3536225;40;20085;-63
2023/07/20 01:13:37;;;;;;;10.60;5.30;;;;;;;17.27;79.29;101145.56;3536283;40;20061;-63
2023/07/20 01:16:03;;;;;;;9.18;5.45;;;;;;;17.31;79.03;101159.75;3534288;40;20064;-63
2023/07/20 01:18:29;;;;;;;7.03;5.53;;;;;;;17.30;79.21;101167.06;3534158;40;20074;-64
2023/07/20 01:21:12;;;;;;;8.50;5.90;;;;;;;17.25;79.80;101155.69;3534123;40;20050;-62
2023/07/20 01:24:12;;;;;;;10.90;5.90;;;;;;;17.23;79.68;101167.72;3535691;40;20125;-63
2023/07/20 01:27:44;;;;;;;10.07;6.07;;;;;;;17.14;79.92;101164.78;3534858;40;20540;-63
2023/07/20 01:30:36;;;;;;;12.23;5.90;;;;;;;17.09;80.69;101163.41;3524534;40;20066;-63
2023/07/20 01:33:04;;;;;;;9.82;6.15;;;;;;;17.06;80.46;101166.41;3536039;40;20055;-63
2023/07/20 01:35:33;;;;;;;10.25;6.47;;;;;;;17.06;80.90;101169.13;3533460;40;20076;-63
2023/07/20 01:38:01;;;;;;;9.93;6.00;;;;;;;17.08;81.58;101170.72;3534676;40;20150;-63
2023/07/20 01:40:28;;;;;;;8.40;5.93;;;;;;;17.10;81.42;101167.88;3532475;40;20145;-63
2023/07/20 01:42:54;;;;;;;10.43;6.10;;;;;;;17.11;81.54;101164.16;3534809;40;20046;-63
2023/07/20 01:45:20;;;;;;;11.05;6.15;;;;;;;17.13;81.54;101173.06;3531749;40;20063;-63
2023/07/20 01:47:45;;;;;;;8.55;5.78;;;;;;;17.12;80.87;101171.31;3535251;40;20390;-63
2023/07/20 01:50:11;;;;;;;10.68;6.65;;;;;;;17.10;81.87;101171.47;3533251;40;20106;-62
2023/07/20 01:52:36;;;;;;;12.30;6.32;;;;;;;17.00;81.81;101154.22;3535255;40;20058;-62
2023/07/20 01:55:04;;;;;;;11.85;6.32;;;;;;;17.16;81.57;101170.09;3539794;40;20291;-63
2023/07/20 01:57:30;;;;;;;9.65;6.15;;;;;;;17.16;82.05;101167.38;3531237;40;20110;-63
2023/07/20 01:59:55;;;;;;;10.35;6.22;;;;;;;17.18;80.80;101171.66;3534645;40;20444;-62
2023/07/20 02:02:23;;;;;;;9.60;5.88;;;;;;;17.17;81.25;101174.53;3537233;40;20322;-63
2023/07/20 02:04:48;;;;;;;12.57;6.75;;;;;;;17.19;81.27;101177.97;3533767;40;20380;-63
2023/07/20 02:07:14;;;;;;;9.82;5.78;;;;;;;17.20;81.02;101178.84;3535137;40;20054;-62
2023/07/20 02:09:39;;;;;;;11.10;6.32;;;;;;;17.20;82.12;101185.13;3534050;40;20054;-62
2023/07/20 02:12:05;;;;;;;12.30;6.70;;;;;;;17.19;82.27;101180.69;3538088;40;20112;-63
2023/07/20 02:14:31;;;;;;;10.10;6.40;;;;;;;17.18;81.78;101176.22;3533318;40;21311;-62
2023/07/20 02:16:59;;;;;;;11.73;6.53;;;;;;;17.18;82.15;101185.25;3539660;40;20042;-63
2023/07/20 02:19:26;;;;;;;8.55;6.55;;;;;;;17.20;82.65;101187.84;3530910;40;20053;-63
2023/07/20 02:21:52;;;;;;;12.73;6.68;;;;;;;17.25;82.02;101184.72;3534082;40;20129;-64
2023/07/20 02:24:18;;;;;;;11.48;7.20;;;;;;;17.28;82.48;101190.75;3532019;40;20098;-63
2023/07/20 02:26:44;;;;;;;9.27;7.00;;;;;;;17.33;82.51;101190.41;3533486;40;20057;-62
2023/07/20 02:29:11;;;;;;;12.02;6.93;;;;;;;17.38;82.21;101191.75;3532511;40;20097;-63
2023/07/20 02:31:39;;;;;;;8.82;6.28;;;;;;;17.38;82.10;101199.88;3532694;40;20054;-61
2023/07/20 02:34:05;;;;;;;10.02;6.95;;;;;;;17.39;82.15;101195.31;3535050;40;20484;-62
2023/07/20 02:36:32;;;;;;;11.07;7.45;;;;;;;17.42;82.73;101196.91;3533997;40;20058;-62
2023/07/20 02:38:58;;;;;;;13.80;7.90;;;;;;;17.42;82.81;101196.91;3533875;40;20301;-61
2023/07/20 02:41:24;;;;;;;13.05;7.85;;;;;;;17.43;82.93;101204.06;3533750;40;20066;-62
2023/07/20 02:43:50;;;;;;;12.18;8.07;;;;;;;17.47;83.36;101206.38;3533813;40;20086;-62
2023/07/20 02:46:16;;;;;;;11.95;10.07;;;;;;;17.50;83.85;101206.13;3535584;40;20313;-62
2023/07/20 02:48:41;;;;;;;13.60;10.73;;;;;;;17.52;84.11;101200.56;3534991;40;20074;-62
2023/07/20 02:51:07;;;;;;;13.05;10.85;;;;;;;17.55;84.92;101195.72;3539983;40;20090;-62
2023/07/20 02:53:33;;;;;;;14.75;10.93;;;;;;;17.54;84.70;101194.00;3537034;40;20271;-62
2023/07/20 02:55:59;;;;;;;13.30;11.27;;;;;;;17.54;84.05;101207.59;3537922;40;20050;-62
2023/07/20 02:58:25;;;;;;;13.43;10.95;;;;;;;17.57;85.31;101212.78;3532730;40;20069;-62
2023/07/20 03:00:50;;;;;;;15.00;11.70;;;;;;;17.60;84.28;101217.06;3533945;40;20050;-62
2023/07/20 03:03:16;;;;;;;14.75;11.18;;;;;;;17.61;83.89;101219.66;3533558;40;20089;-62
2023/07/20 03:05:42;;;;;;;15.05;11.80;;;;;;;17.64;83.91;101224.00;3535959;40;20050;-62
2023/07/20 03:08:08;;;;;;;13.82;11.52;;;;;;;17.64;84.25;101213.13;3533788;40;20306;-62
2023/07/20 03:10:40;;;;;;;15.98;12.65;;;;;;;17.65;84.37;101222.97;3539359;40;20055;-62
2023/07/20 03:13:06;;;;;;;15.82;12.60;;;;;;;17.64;84.32;101226.72;3538661;40;20409;-62
2023/07/20 03:15:32;;;;;;;14.05;12.60;;;;;;;17.62;84.15;101228.69;3535610;40;20062;-62
2023/07/20 03:17:58;;;;;;;15.75;12.07;;;;;;;17.57;84.20;101228.19;3535647;40;20050;-62
2023/07/20 03:20:24;;;;;;;14.00;11.88;;;;;;;17.54;84.51;101237.50;3533557;40;20059;-61
2023/07/20 03:22:50;;;;;;;14.02;12.00;;;;;;;17.53;84.96;101234.91;3539240;40;20376;-60
2023/07/20 03:25:17;;;;;;;14.65;12.40;;;;;;;17.51;83.91;101235.03;3537561;40;20054;-61
2023/07/20 03:27:43;;;;;;;16.55;12.65;;;;;;;17.50;84.34;101235.16;3534806;40;20070;-62
2023/07/20 03:30:09;;;;;;;14.52;12.32;;;;;;;17.47;84.46;101235.41;3538301;40;20402;-60
2023/07/20 03:32:35;;;;;;;14.15;12.70;;;;;;;17.37;84.44;101219.88;3537222;40;20046;-61
2023/07/20 03:35:01;;;;;;;13.40;11.27;;;;;;;17.38;84.22;101232.50;3535997;40;20132;-62
2023/07/20 03:37:27;;;;;;;13.30;10.73;;;;;;;17.29;83.13;101227.84;3533331;40;20074;-61
2023/07/20 03:39:53;;;;;;;12.05;10.68;;;;;;;17.29;83.74;101233.28;3535102;40;20050;-63
2023/07/20 03:42:18;;;;;;;11.32;10.23;;;;;;;17.24;83.70;101240.94;3537090;40;20109;-63
2023/07/20 03:44:44;;;;;;;11.32;10.13;;;;;;;17.23;84.18;101244.66;3535271;40;20074;-64
2023/07/20 03:47:10;;;;;;;11.75;10.43;;;;;;;17.20;83.91;101253.06;3536108;40;20050;-64
2023/07/20 03:49:36;;;;;;;11.85;10.63;;;;;;;17.16;84.50;101243.44;3534897;40;20101;-63
2023/07/20 03:52:03;;;;;;;12.75;11.45;;;;;;;17.17;84.28;101247.88;3532933;40;20054;-63
2023/07/20 03:54:29;;;;;;;13.77;11.77;;;;;;;17.21;84.46;101251.19;3535842;40;20382;-63
2023/07/20 03:56:54;;;;;;;13.88;11.55;;;;;;;17.22;84.74;101255.63;3538821;40;20314;-64
2023/07/20 03:59:20;;;;;;;15.52;12.95;;;;;;;17.20;85.16;101242.19;3539279;40;20065;-64
2023/07/20 04:01:46;;;;;;;16.38;12.35;;;;;;;17.22;84.54;101255.63;3535605;40;20066;-63
2023/07/20 04:04:12;;;;;;;14.73;12.55;;;;;;;17.21;84.81;101256.63;3534804;40;20073;-64
2023/07/20 04:06:38;;;;;;;14.50;12.80;;;;;;;17.13;84.60;101249.97;3533946;40;20113;-64
2023/07/20 04:09:05;;;;;;;13.77;12.32;;;;;;;17.15;84.06;101255.28;3532750;40;20052;-63
2023/07/20 04:11:30;;;;;;;14.13;11.90;;;;;;;17.15;84.17;101258.00;3539919;40;20066;-63
2023/07/20 04:13:56;;;;;;;13.38;11.57;;;;;;;17.12;83.60;101256.38;3535614;40;20144;-62
2023/07/20 04:16:22;;;;;;;11.57;10.10;;;;;;;17.16;83.61;101259.75;3533739;40;20306;-63
2023/07/20 04:18:47;;;;;;;11.07;9.77;;;;;;;17.14;83.36;101264.44;3535667;40;20563;-63
2023/07/20 04:21:13;;;;;;;12.05;10.30;;;;;;;17.12;82.92;101252.81;3532834;40;20098;-63
2023/07/20 04:23:39;;;;;;;10.40;9.40;;;;;;;17.12;83.04;101256.38;3535367;40;20062;-64
2023/07/20 04:26:06;;;;;;;10.13;9.13;;;;;;;17.16;82.59;101262.47;3536575;40;20050;-62
2023/07/20 04:28:32;;;;;;;9.45;8.55;;;;;;;17.15;81.93;101258.84;3536052;40;20128;-63
2023/07/20 04:31:11;;;;;;;9.55;8.13;;;;;;;17.17;81.95;101261.47;3536218;40;20066;-63
2023/07/20 04:33:37;;;;;;;8.32;7.45;;;;;;;17.16;81.80;101271.47;3541347;40;20060;-62
2023/07/20 04:36:03;;;;;;;8.77;7.85;;;;;;;17.12;81.32;101263.69;3534609;40;20054;-63
2023/07/20 04:38:28;;;;;;;8.05;7.30;;;;;;;17.10;81.05;101265.69;3535312;40;20540;-63
2023/07/20 04:40:54;;;;;;;8.00;7.20;;;;;;;17.07;81.49;101268.66;3535534;40;20133;-63
2023/07/20 04:43:19;;;;;;;10.48;7.30;;;;;;;16.99;80.64;101273.81;3533755;40;20061;-63
2023/07/20 04:45:46;;;;;;;8.88;7.60;;;;;;;16.93;81.91;101270.63;3535082;40;20058;-63
2023/07/20 04:48:16;;;;;;;8.70;7.90;;;;;;;16.86;82.35;101277.53;3533197;40;20472;-63
2023/07/20 04:50:44;;;;;;;10.27;9.27;;;;;;;16.85;82.76;101277.69;3536097;40;20373;-63
2023/07/20 04:53:11;;;;;;;10.07;9.15;;;;;;;16.80;83.35;101271.75;3536484;40;20069;-63
2023/07/20 04:55:39;;;;;;;11.13;10.02;;;;;;;16.75;83.35;101265.81;3538143;40;20090;-63
2023/07/20 04:58:06;;;;;;;12.50;10.38;;;;;;;16.73;84.21;101265.91;3535637;40;20113;-63
2023/07/20 05:00:34;;;;;;;11.98;10.70;;;;;;;16.71;83.90;101270.59;3535255;40;20398;-63
2023/07/20 05:02:59;;;;;;;12.13;10.82;;;;;;;16.67;84.47;101255.56;3532955;40;20058;-63
2023/07/20 05:05:25;;;;;;;12.63;11.35;;;;;;;16.69;84.10;101256.31;3535897;40;20493;-62
2023/07/20 05:07:51;;;;;;;12.63;11.43;;;;;;;16.66;84.80;101256.56;3533720;40;20125;-63
2023/07/20 05:10:17;;;;;;;14.02;12.27;;;;;;;16.66;84.94;101251.97;3536515;40;20317;-63
2023/07/20 05:12:43;;;;;;;15.52;12.55;;;;;;;16.64;84.70;101244.94;3535879;40;20891;-63
2023/07/20 05:15:09;;;;;;;14.55;13.10;;;;;;;16.69;85.29;101259.03;3536178;40;20097;-63
2023/07/20 05:17:35;;;;;;;14.48;12.75;;;;;;;16.74;85.17;101259.50;3533876;40;20062;-64
2023/07/20 05:20:01;;;;;;;15.57;13.98;;;;;;;16.79;84.98;101268.16;3537135;40;20050;-64
2023/07/20 05:22:27;;;;;;;15.32;13.82;;;;;;;16.82;85.33;101277.94;3532838;40;20078;-64
2023/07/20 05:24:52;;;;;;;16.40;14.60;;;;;;;16.88;84.73;101272.00;3533982;40;20579;-64
2023/07/20 05:27:18;;;;;;;15.00;13.50;;;;;;;16.88;84.66;101267.44;3534951;40;20057;-64
2023/07/20 05:29:46;;;;;;;15.25;13.75;;;;;;;16.87;84.18;101281.13;3537026;40;20362;-64
2023/07/20 05:32:15;;;;;;;13.13;11.77;;;;;;;16.89;84.33;101269.16;3538207;40;20055;-64
2023/07/20 05:34:40;;;;;;;12.88;11.50;;;;;;;16.92;84.43;101276.19;3536858;40;20278;-64
2023/07/20 05:37:06;;;;;;;12.00;10.80;;;;;;;16.97;83.40;101281.22;3536897;40;20076;-64
2023/07/20 05:39:34;;;;;;;11.15;9.98;;;;;;;16.98;82.79;101277.53;3539264;40;20102;-64
2023/07/20 05:42:00;;;;;;;11.07;9.60;;;;;;;17.00;82.56;101287.31;3539157;40;20050;-64
2023/07/20 05:44:26;;;;;;;10.93;9.40;;;;;;;17.01;82.18;101285.44;3536323;40;20360;-65
2023/07/20 05:46:51;;;;;;;10.07;9.00;;;;;;;17.03;82.70;101286.16;3537753;40;20401;-65
2023/07/20 05:49:17;;;;;;;9.70;8.70;;;;;;;17.06;82.85;101285.91;3536756;40;20279;-64
2023/07/20 05:51:42;;;;;;;10.38;8.32;;;;;;;17.06;82.57;101289.50;3539057;40;20065;-62
2023/07/20 05:54:08;;;;;;;8.68;7.78;;;;;;;17.11;81.78;101283.69;3535999;40;20073;-63
2023/07/20 05:56:34;;;;;;;8.90;8.00;;;;;;;17.16;81.32;101286.91;3536118;40;20073;-64
2023/07/20 05:59:00;;;;;;;8.43;7.22;;;;;;;17.23;81.08;101288.13;3537871;40;20054;-63
2023/07/20 06:01:27;;;;;;;7.68;6.78;;;;;;;17.31;80.42;101293.75;3536849;40;20073;-64
2023/07/20 06:03:53;;;;;;;6.68;5.97;;;;;;;17.40;80.25;101293.00;3538484;40;20479;-63
2023/07/20 06:06:19;;;;;;;8.73;6.30;;;;;;;17.46;79.12;101293.50;3536420;40;20054;-64
2023/07/20 06:08:45;;;;;;;6.55;5.53;;;;;;;17.46;79.01;101293.50;3535821;40;20047;-64
2023/07/20 06:11:12;;;;;;;6.38;5.55;;;;;;;17.47;79.30;101284.34;3531206;40;20420;-64
2023/07/20 06:13:38;;;;;;;6.75;4.80;;;;;;;17.55;79.19;101290.00;3539136;40;20057;-63
2023/07/20 06:16:05;;;;;;;5.72;4.93;;;;;;;17.55;78.35;101290.88;3533574;40;20057;-63
2023/07/20 06:18:31;;;;;;;5.85;4.90;;;;;;;17.60;77.84;101296.78;3529924;40;20366;-64
2023/07/20 06:20:56;;;;;;;7.63;5.72;;;;;;;17.66;78.41;101302.69;3533435;40;20063;-64
2023/07/20 06:23:22;;;;;;;6.82;5.85;;;;;;;17.07;76.27;101192.59;3539011;40;20155;-63
2023/07/20 06:25:48;;;;;;;7.30;5.05;;;;;;;17.74;77.16;101314.66;3535173;40;20360;-64
2023/07/20 06:28:14;;;;;;;5.80;5.30;;;;;;;17.89;76.47;101303.50;3535465;40;20050;-64
2023/07/20 06:30:40;;;;;;;5.85;5.35;;;;;;;18.03;76.15;101303.19;3538082;40;20062;-64
2023/07/20 06:33:06;;;;;;;6.13;5.53;;;;;;;18.18;75.48;101309.19;3537834;40;20062;-64
2023/07/20 06:35:32;;;;;;;6.80;5.28;;;;;;;18.24;73.97;101306.78;3534519;40;20063;-64
2023/07/20 06:38:00;;;;;;;6.85;5.63;;;;;;;18.26;74.14;101310.22;3535107;40;20070;-64
2023/07/20 06:40:26;;;;;;;6.43;4.70;;;;;;;18.24;73.12;101305.94;3536227;40;20401;-65
2023/07/20 06:42:51;;;;;;;5.25;4.47;;;;;;;18.23;72.13;101291.44;3534579;40;20066;-66
2023/07/20 06:45:17;;;;;;;5.53;5.03;;;;;;;18.27;73.25;101300.22;3533932;40;20062;-66
2023/07/20 06:47:43;;;;;;;8.73;6.65;;;;;;;18.24;73.35;101297.75;3533976;40;20404;-66
2023/07/20 06:50:10;;;;;;;7.50;6.90;;;;;;;18.25;73.19;101300.34;3536130;40;20061;-65
2023/07/20 06:52:36;;;;;;;7.18;6.47;;;;;;;18.26;73.66;101306.63;3535777;40;20070;-66
2023/07/20 06:55:03;;;;;;;10.10;7.35;;;;;;;18.27;73.42;101311.09;3537572;40;20070;-66
2023/07/20 06:57:28;;;;;;;8.85;6.80;;;;;;;18.40;73.01;101310.91;3539195;40;20090;-66
2023/07/20 06:59:54;;;;;;;9.98;6.80;;;;;;;18.56;72.51;101311.28;3534285;40;20062;-66
2023/07/20 07:02:20;;;;;;;7.32;6.50;;;;;;;18.84;71.74;101314.31;3536851;40;20058;-66
2023/07/20 07:04:46;;;;;;;7.03;6.20;;;;;;;19.09;71.69;101319.28;3539393;40;20105;-66
2023/07/20 07:07:15;;;;;;;5.82;5.22;;;;;;;19.37;69.13;101322.22;3532406;40;20063;-66
2023/07/20 07:09:41;;;;;;;7.75;5.63;;;;;;;19.60;68.45;101323.72;3536513;40;20057;-65
2023/07/20 07:12:08;;;;;;;4.85;4.45;;;;;;;19.70;67.36;101302.81;3535370;40;20161;-65
2023/07/20 07:14:34;;;;;;;5.05;3.95;;;;;;;20.04;65.81;101321.47;3534770;40;20053;-66
2023/07/20 07:17:00;;;;;;;3.25;3.05;;;;;;;20.13;64.38;101322.47;3535128;40;20094;-66
2023/07/20 07:19:26;;;;;;;3.72;3.42;;;;;;;20.14;62.87;101332.41;3536887;40;20050;-65
2023/07/20 07:21:52;;;;;;;2.75;2.55;;;;;;;19.99;62.78;101326.50;3536565;40;20070;-65
2023/07/20 07:24:17;;;;;;;2.70;2.50;;;;;;;19.82;63.44;101322.63;3534377;40;20054;-65
2023/07/20 07:26:43;;;;;;;2.78;2.40;;;;;;;19.89;63.22;101328.38;3535678;40;20088;-64
2023/07/20 07:29:09;;;;;;;2.90;2.28;;;;;;;19.91;63.52;101327.22;3533849;40;20129;-64
2023/07/20 07:31:38;;;;;;;2.70;1.75;;;;;;;19.98;63.54;101322.06;3536062;40;20058;-65
2023/07/20 07:34:04;;;;;;;2.10;1.90;;;;;;;20.07;62.17;101318.44;3535373;40;20394;-64
2023/07/20 07:36:31;;;;;;;1.75;1.52;;;;;;;20.28;62.54;101328.34;3535608;40;20062;-65
2023/07/20 07:38:57;;;;;;;1.98;1.70;;;;;;;20.46;61.03;101329.34;3535534;40;20066;-65
2023/07/20 07:41:23;;;;;;;4.43;1.80;;;;;;;20.68;60.09;101336.38;3539935;40;20057;-64
2023/07/20 07:43:49;;;;;;;2.50;2.30;;;;;;;20.39;60.49;101257.19;3534894;40;20067;-65
2023/07/20 07:46:15;;;;;;;2.53;1.88;;;;;;;20.93;59.25;101337.59;3534482;40;20394;-66
2023/07/20 07:48:42;;;;;;;2.78;2.03;;;;;;;20.87;59.11;101340.91;3536554;40;20053;-63
2023/07/20 07:51:07;;;;;;;1.48;1.38;;;;;;;20.94;59.17;101346.63;3536085;40;20058;-64
2023/07/20 07:53:35;;;;;;;2.38;1.58;;;;;;;20.97;57.44;101349.06;3537553;40;20400;-64
2023/07/20 07:56:00;;;;;;;2.15;1.27;;;;;;;20.94;57.59;101346.63;3534369;40;20468;-65
2023/07/20 07:58:26;;;;;;;1.40;1.30;;;;;;;20.83;57.90;101356.72;3536323;40;20337;-64
2023/07/20 08:00:52;;;;;;;0.90;0.73;;;;;;;20.79;56.37;101354.44;3534192;40;20077;-64
2023/07/20 08:03:18;;;;;;;1.15;0.80;;;;;;;20.72;55.56;101359.63;3534776;40;20078;-64
2023/07/20 08:05:44;;;;;;;0.93;0.60;;;;;;;20.60;55.63;101348.00;3533936;40;20062;-64
2023/07/20 08:08:09;;;;;;;0.85;0.63;;;;;;;20.51;54.73;101350.72;3535935;40;20062;-64
2023/07/20 08:10:35;;;;;;;0.95;0.60;;;;;;;19.96;55.26;101274.94;3537084;40;20049;-64
2023/07/20 08:13:00;;;;;;;0.80;0.80;;;;;;;20.39;56.42;101358.22;3538467;40;20055;-64
2023/07/20 08:15:26;;;;;;;1.92;1.02;;;;;;;20.34;56.88;101350.47;3534076;40;20386;-64
2023/07/20 08:17:52;;;;;;;1.13;0.82;;;;;;;20.40;57.68;101344.44;3536165;40;20081;-63
2023/07/20 08:20:18;;;;;;;1.50;0.73;;;;;;;20.72;55.98;101358.78;3535127;40;20435;-63
2023/07/20 08:22:44;;;;;;;1.13;1.02;;;;;;;20.98;55.67;101359.84;3531989;40;20062;-64
2023/07/20 08:25:10;;;;;;;1.05;1.00;;;;;;;21.20;54.74;101358.59;3533854;40;20066;-64
2023/07/20 08:27:37;;;;;;;1.95;0.80;;;;;;;21.44;55.01;101354.47;3532849;40;20058;-63
2023/07/20 08:30:07;;;;;;;3.05;1.00;;;;;;;21.77;53.91;101356.56;3534700;40;20321;-64
2023/07/20 08:32:33;;;;;;;1.23;0.63;;;;;;;21.99;51.33;101348.91;3533062;40;20090;-64
2023/07/20 08:34:59;;;;;;;4.68;0.90;;;;;;;22.28;53.27;101345.09;3535381;40;20322;-64
2023/07/20 08:37:24;;;;;;;2.33;0.73;;;;;;;22.41;50.90;101349.13;3535316;40;20064;-64
2023/07/20 08:39:50;;;;;;;1.50;1.00;;;;;;;22.53;49.88;101348.88;3536242;40;20053;-64
2023/07/20 08:42:16;;;;;;;1.02;0.57;;;;;;;22.66;51.67;101347.44;3534035;40;20198;-64
2023/07/20 08:44:45;;;;;;;1.48;0.68;;;;;;;22.81;51.44;101344.97;3533779;40;20128;-64
2023/07/20 08:47:16;;;;;;;2.13;0.80;;;;;;;23.05;51.75;101337.91;3533832;40;20054;-64
2023/07/20 08:49:42;;;;;;;1.75;1.10;;;;;;;23.06;50.68;101334.19;3535854;40;20113;-64
2023/07/20 08:52:10;;;;;;;0.85;0.77;;;;;;;22.92;50.54;101336.44;3534656;40;20056;-63
2023/07/20 08:54:36;;;;;;;1.67;1.13;;;;;;;22.66;50.63;101341.09;3534309;40;20144;-64
2023/07/20 08:57:05;;;;;;;1.30;0.90;;;;;;;22.42;50.93;101339.91;3537175;40;20054;-64
2023/07/20 08:59:32;;;;;;;0.85;0.85;;;;;;;22.43;51.37;101333.41;3535288;40;20086;-64
2023/07/20 09:02:00;;;;;;;1.55;0.95;;;;;;;22.37;51.12;101344.16;3535097;40;20058;-63
2023/07/20 09:04:26;;;;;;;2.08;1.00;;;;;;;22.28;51.18;101336.88;3535448;40;20468;-64
2023/07/20 09:06:52;;;;;;;1.33;1.05;;;;;;;22.24;51.10;101342.66;3534523;40;20070;-64
2023/07/20 09:09:18;;;;;;;2.15;0.88;;;;;;;22.48;49.69;101333.75;3537645;40;20062;-64
2023/07/20 09:11:49;;;;;;;1.25;0.70;;;;;;;22.80;50.15;101332.25;3534184;40;20089;-64
2023/07/20 09:14:15;;;;;;;1.10;0.75;;;;;;;23.10;48.17;101332.81;3537811;40;20061;-64
2023/07/20 09:16:55;;;;;;;0.47;0.40;;;;;;;23.47;48.16;101334.31;3535145;40;20099;-64
2023/07/20 09:19:22;;;;;;;0.80;0.55;;;;;;;23.37;46.43;101307.91;3534846;40;20054;-64
2023/07/20 09:21:52;;;;;;;0.60;0.60;;;;;;;23.69;47.03;101331.00;3534033;40;20174;-64
2023/07/20 09:24:20;;;;;;;0.88;0.50;;;;;;;23.98;45.45;101332.41;3533709;40;21531;-64
2023/07/20 09:26:48;;;;;;;2.05;0.70;;;;;;;24.23;46.04;101328.66;3533603;40;20113;-64
2023/07/20 09:29:18;;;;;;;0.75;0.65;;;;;;;24.44;44.89;101327.28;3533758;40;20054;-65
2023/07/20 09:32:02;;;;;;;1.00;0.68;;;;;;;24.50;45.21;101310.09;3531984;40;20050;-64
2023/07/20 09:34:32;;;;;;;1.23;0.60;;;;;;;24.82;45.28;101325.66;3533153;40;20054;-64
2023/07/20 09:37:00;;;;;;;1.23;0.50;;;;;;;24.96;43.75;101316.69;3533530;40;20170;-65
2023/07/20 09:39:27;;;;;;;1.48;0.73;;;;;;;25.14;43.47;101323.88;3537660;40;20061;-64
2023/07/20 09:41:52;;;;;;;1.08;0.80;;;;;;;24.90;41.69;101320.16;3534663;40;20059;-64
2023/07/20 09:44:19;;;;;;;0.82;0.57;;;;;;;24.66;43.20;101315.56;3532401;40;20421;-64
2023/07/20 09:46:50;;;;;;;0.60;0.60;;;;;;;24.45;42.27;101268.50;3534482;40;20055;-65
2023/07/20 09:49:17;;;;;;;0.95;0.50;;;;;;;24.62;42.03;101318.84;3536326;40;20065;-64
2023/07/20 09:51:46;;;;;;;1.23;0.60;;;;;;;24.42;42.79;101323.81;3535500;40;20157;-64
2023/07/20 09:54:13;;;;;;;2.47;0.70;;;;;;;24.13;45.13;101318.84;3535221;40;20060;-64
2023/07/20 09:56:42;;;;;;;1.20;0.80;;;;;;;23.82;45.58;101316.78;3535463;40;20500;-64
2023/07/20 09:59:08;;;;;;;1.00;0.80;;;;;;;23.58;46.44;101317.53;3534742;40;20153;-64
2023/07/20 10:01:42;;;;;;;2.08;0.80;;;;;;;23.26;46.00;101310.06;3536416;40;20624;-64
2023/07/20 10:04:12;;;;;;;1.23;0.98;;;;;;;23.04;47.09;101311.53;3533463;40;20110;-64
2023/07/20 10:06:46;;;;;;;0.77;0.77;;;;;;;22.88;47.94;101318.63;3534544;40;20160;-64
2023/07/20 10:09:15;;;;;;;0.88;0.88;;;;;;;22.76;47.63;101319.06;3540792;40;20050;-64
2023/07/20 10:11:53;;;;;;;0.88;0.80;;;;;;;22.38;48.22;101260.94;3534528;40;20057;-64
2023/07/20 10:14:20;;;;;;;1.92;0.95;;;;;;;23.03;48.14;101309.81;3537379;40;20052;-64
2023/07/20 10:17:00;;;;;;;0.90;0.80;;;;;;;23.53;47.51;101311.69;3539243;40;20050;-64
2023/07/20 10:19:49;;;;;;;2.40;1.00;;;;;;;24.14;46.85;101315.94;3537235;40;20058;-64
2023/07/20 10:22:26;;;;;;;1.45;1.00;;;;;;;24.55;46.02;101316.78;3541615;40;20060;-64
2023/07/20 10:24:54;;;;;;;2.08;1.20;;;;;;;24.97;45.01;101307.38;3534563;40;20124;-65
2023/07/20 10:27:20;;;;;;;1.15;0.77;;;;;;;25.32;45.33;101304.34;3537177;40;20051;-65
2023/07/20 10:29:48;;;;;;;3.20;0.90;;;;;;;25.73;42.78;101301.38;3537711;40;20070;-65
2023/07/20 10:32:14;;;;;;;0.90;0.90;;;;;;;26.05;40.21;101301.13;3536649;40;20070;-65
2023/07/20 10:34:40;;;;;;;0.80;0.68;;;;;;;26.21;39.94;101305.66;3538887;40;20070;-64
2023/07/20 10:37:06;;;;;;;0.80;0.80;;;;;;;26.24;40.39;101293.41;3541340;40;20050;-64
2023/07/20 10:39:33;;;;;;;1.10;0.68;;;;;;;26.03;40.76;101291.34;3535027;40;20054;-65
2023/07/20 10:42:10;;;;;;;0.88;0.70;;;;;;;25.68;41.59;101288.13;3537369;40;20051;-64
2023/07/20 10:44:40;;;;;;;0.75;0.65;;;;;;;25.38;40.43;101298.13;3534754;40;20057;-65
2023/07/20 10:47:13;;;;;;;2.08;1.00;;;;;;;25.12;40.40;101291.03;3536073;40;20047;-68
2023/07/20 10:50:00;;;;;;;1.23;0.60;;;;;;;24.82;42.74;101286.31;3536296;40;20038;-64
2023/07/20 10:52:26;;;;;;;0.40;0.38;;;;;;;24.79;42.50;101282.84;3540570;40;20050;-63
2023/07/20 10:54:51;;;;;;;1.08;0.80;;;;;;;24.78;40.00;101275.66;3537312;40;20085;-64
2023/07/20 10:57:37;;;;;;;1.17;0.70;;;;;;;24.59;40.92;101276.06;3536667;40;20404;-63
2023/07/20 11:00:14;;;;;;;1.15;0.88;;;;;;;24.29;42.01;101285.84;3534749;40;20109;-64
2023/07/20 11:02:49;;;;;;;0.90;0.80;;;;;;;24.19;42.60;101286.03;3537161;40;20084;-63
2023/07/20 11:05:40;;;;;;;0.82;0.70;;;;;;;24.01;43.52;101279.88;3536334;40;20052;-64
2023/07/20 11:08:12;;;;;;;0.85;0.50;;;;;;;23.88;43.39;101276.78;3534136;40;20098;-64
2023/07/20 11:10:39;;;;;;;0.63;0.60;;;;;;;23.73;43.14;101282.94;3536902;40;20062;-64
2023/07/20 11:13:21;;;;;;;1.17;0.60;;;;;;;23.66;44.62;101278.25;3539470;40;20440;-65
2023/07/20 11:16:03;;;;;;;1.35;0.60;;;;;;;23.60;45.29;101286.16;3537257;40;20086;-64
2023/07/20 11:18:30;;;;;;;1.50;0.68;;;;;;;23.56;45.31;101278.41;3538459;40;20062;-63
2023/07/20 11:20:56;;;;;;;1.98;0.63;;;;;;;23.39;45.50;101261.91;3536443;40;20061;-64
2023/07/20 11:23:22;;;;;;;0.90;0.65;;;;;;;23.38;44.45;101276.69;3530771;40;20141;-63
2023/07/20 11:25:50;;;;;;;2.53;0.60;;;;;;;23.32;44.90;101271.84;3535045;40;20363;-63